Time;durP1;ratioP1;P1;durP2;ratioP2;P2;SDS_P1;SDS_P2;PMS_P1;PMS_P2;Temp;Humidity;BMP_temperature;BMP_pressure;BME280_temperature;BME280_humidity;BME280_pressure;Samples;Min_cycle;Max_cycle;Signal;HPM_P1;HPM_P2
2023/05/04 00:01:59;;;;;;;4.70;3.03;;;;;;;;;;5110185;28;20302;-84
2023/05/04 00:04:26;;;;;;;3.60;2.83;;;;;;;;;;5107495;28;20204;-85
2023/05/04 00:06:53;;;;;;;6.40;2.90;;;;;;;;;;5111084;28;20195;-84
2023/05/04 00:09:20;;;;;;;3.33;2.60;;;;;;;;;;5111098;28;20215;-85
2023/05/04 00:11:49;;;;;;;5.17;3.40;;;;;;;;;;5113039;28;20204;-84
2023/05/04 00:14:16;;;;;;;3.17;2.97;;;;;;;;;;5115063;28;20219;-84
2023/05/04 00:16:44;;;;;;;3.83;2.60;;;;;;;;;;5103180;28;20195;-83
2023/05/04 00:19:11;;;;;;;3.80;2.70;;;;;;;;;;5066837;28;20203;-84
2023/05/04 00:21:38;;;;;;;4.20;3.00;;;;;;;;;;5106499;28;20254;-84
2023/05/04 00:24:05;;;;;;;3.73;3.20;;;;;;;;;;5115006;28;20569;-85
2023/05/04 00:26:32;;;;;;;4.47;3.30;;;;;;;;;;5124538;27;20210;-85
2023/05/04 00:29:01;;;;;;;2.83;2.60;;;;;;;;;;5096845;28;20267;-84
2023/05/04 00:31:28;;;;;;;3.67;3.10;;;;;;;;;;5114236;28;20211;-84
2023/05/04 00:33:56;;;;;;;3.73;3.10;;;;;;;;;;5096760;28;20243;-84
2023/05/04 00:36:23;;;;;;;4.77;2.87;;;;;;;;;;5108185;28;20203;-84
2023/05/04 00:38:50;;;;;;;2.60;2.40;;;;;;;;;;5113187;28;20223;-84
2023/05/04 00:41:19;;;;;;;4.73;3.00;;;;;;;;;;5114759;28;20207;-84
2023/05/04 00:43:46;;;;;;;3.63;2.83;;;;;;;;;;5114228;28;20239;-85
2023/05/04 00:46:17;;;;;;;3.60;3.27;;;;;;;;;;5114588;28;20199;-84
2023/05/04 00:48:46;;;;;;;6.30;3.23;;;;;;;;;;5114008;28;20253;-84
2023/05/04 00:51:15;;;;;;;4.47;3.53;;;;;;;;;;5109546;28;20210;-84
2023/05/04 00:53:42;;;;;;;3.07;2.63;;;;;;;;;;5114091;28;20325;-84
2023/05/04 00:56:09;;;;;;;3.30;2.80;;;;;;;;;;5114242;28;20219;-85
2023/05/04 00:58:36;;;;;;;3.50;2.63;;;;;;;;;;5095637;28;20719;-85
2023/05/04 01:01:04;;;;;;;3.80;3.13;;;;;;;;;;5114089;28;20203;-84
2023/05/04 01:03:32;;;;;;;6.10;3.63;;;;;;;;;;5114106;28;20276;-84
2023/05/04 01:06:06;;;;;;;3.97;3.57;;;;;;;;;;5113530;28;20233;-85
2023/05/04 01:08:39;;;;;;;4.83;3.40;;;;;;;;;;5113928;27;20207;-84
2023/05/04 01:11:11;;;;;;;5.20;3.20;;;;;;;;;;5101002;28;20616;-84
2023/05/04 01:13:39;;;;;;;4.80;3.23;;;;;;;;;;5101525;28;20585;-85
2023/05/04 01:16:06;;;;;;;4.10;3.27;;;;;;;;;;5113873;28;20682;-84
2023/05/04 01:18:35;;;;;;;3.97;3.30;;;;;;;;;;5113558;28;20233;-85
2023/05/04 01:21:02;;;;;;;3.03;2.73;;;;;;;;;;5113228;28;20207;-84
2023/05/04 01:23:31;;;;;;;3.10;2.90;;;;;;;;;;5099507;28;20234;-85
2023/05/04 01:26:03;;;;;;;5.60;3.23;;;;;;;;;;5113347;28;20252;-84
2023/05/04 01:28:33;;;;;;;5.40;3.10;;;;;;;;;;5113362;28;20200;-85
2023/05/04 01:31:02;;;;;;;5.47;3.70;;;;;;;;;;5113352;28;20698;-85
2023/05/04 01:33:29;;;;;;;6.77;3.80;;;;;;;;;;5112937;28;20269;-84
2023/05/04 01:35:56;;;;;;;10.03;3.90;;;;;;;;;;5113496;28;20265;-85
2023/05/04 01:38:24;;;;;;;3.23;2.93;;;;;;;;;;5112992;28;20789;-84
2023/05/04 01:40:52;;;;;;;5.33;3.67;;;;;;;;;;5113378;28;20203;-85
2023/05/04 01:43:20;;;;;;;6.00;4.10;;;;;;;;;;5113167;28;20284;-85
2023/05/04 01:45:47;;;;;;;4.30;3.37;;;;;;;;;;5113258;28;20246;-85
2023/05/04 01:48:14;;;;;;;5.57;3.53;;;;;;;;;;5113143;28;20215;-85
2023/05/04 01:50:41;;;;;;;6.37;3.70;;;;;;;;;;5102140;28;20256;-85
2023/05/04 01:53:08;;;;;;;4.77;2.60;;;;;;;;;;5113642;28;20207;-84
2023/05/04 01:55:35;;;;;;;6.27;3.67;;;;;;;;;;5101880;28;20678;-85
2023/05/04 01:58:04;;;;;;;3.00;2.80;;;;;;;;;;5084623;28;20653;-85
2023/05/04 02:00:31;;;;;;;5.23;3.30;;;;;;;;;;5100742;28;20257;-85
2023/05/04 02:02:58;;;;;;;3.97;3.23;;;;;;;;;;5082185;28;20227;-85
2023/05/04 02:05:25;;;;;;;6.17;3.47;;;;;;;;;;5100373;28;20212;-85
2023/05/04 02:07:52;;;;;;;4.47;4.07;;;;;;;;;;5112389;28;20200;-85
2023/05/04 02:10:19;;;;;;;3.83;3.53;;;;;;;;;;5099763;28;20252;-84
2023/05/04 02:12:46;;;;;;;6.00;3.47;;;;;;;;;;5111175;28;20207;-85
2023/05/04 02:15:15;;;;;;;3.37;3.07;;;;;;;;;;5099315;28;20207;-85
2023/05/04 02:17:42;;;;;;;5.30;3.00;;;;;;;;;;5094229;28;20264;-85
2023/05/04 02:20:11;;;;;;;4.60;3.60;;;;;;;;;;5106574;28;20690;-85
2023/05/04 02:22:39;;;;;;;5.67;3.63;;;;;;;;;;5105486;28;20280;-85
2023/05/04 02:25:07;;;;;;;4.87;3.53;;;;;;;;;;5112197;28;20260;-85
2023/05/04 02:27:34;;;;;;;6.20;3.20;;;;;;;;;;5112936;28;20227;-85
2023/05/04 02:30:01;;;;;;;3.70;3.40;;;;;;;;;;5110918;28;20275;-85
2023/05/04 02:32:30;;;;;;;5.30;3.90;;;;;;;;;;5112273;28;20260;-84
2023/05/04 02:34:57;;;;;;;9.67;3.87;;;;;;;;;;5111489;28;20207;-85
2023/05/04 02:37:24;;;;;;;6.27;4.50;;;;;;;;;;5112085;28;20268;-85
2023/05/04 02:39:51;;;;;;;5.47;3.63;;;;;;;;;;5112296;28;20268;-85
2023/05/04 02:42:18;;;;;;;7.90;3.40;;;;;;;;;;5101466;28;20324;-85
2023/05/04 02:44:45;;;;;;;3.73;3.17;;;;;;;;;;5111790;28;20211;-85
2023/05/04 02:47:12;;;;;;;4.30;2.83;;;;;;;;;;5118655;27;20199;-86
2023/05/04 02:49:40;;;;;;;7.47;4.00;;;;;;;;;;5111731;28;20196;-85
2023/05/04 02:52:07;;;;;;;5.67;3.17;;;;;;;;;;5093980;28;20347;-85
2023/05/04 02:54:34;;;;;;;5.20;3.43;;;;;;;;;;5111222;28;20207;-84
2023/05/04 02:57:01;;;;;;;3.87;3.27;;;;;;;;;;5102022;28;20271;-85
2023/05/04 02:59:28;;;;;;;4.90;3.33;;;;;;;;;;5111956;28;20195;-85
2023/05/04 03:01:55;;;;;;;4.17;2.97;;;;;;;;;;5099275;28;20211;-84
2023/05/04 03:04:22;;;;;;;10.33;5.67;;;;;;;;;;5106058;28;20227;-85
2023/05/04 03:06:50;;;;;;;3.63;3.30;;;;;;;;;;5111671;27;20211;-85
2023/05/04 03:09:17;;;;;;;4.97;3.87;;;;;;;;;;5093014;28;20203;-84
2023/05/04 03:11:45;;;;;;;6.23;3.60;;;;;;;;;;5079875;28;20618;-85
2023/05/04 03:14:12;;;;;;;4.20;3.80;;;;;;;;;;5115249;28;20203;-86
2023/05/04 03:16:39;;;;;;;5.77;4.10;;;;;;;;;;5105060;28;20253;-85
2023/05/04 03:19:06;;;;;;;4.20;3.13;;;;;;;;;;5112065;28;20203;-84
2023/05/04 03:21:33;;;;;;;4.43;3.23;;;;;;;;;;5093963;28;20200;-85
2023/05/04 03:24:01;;;;;;;3.97;3.57;;;;;;;;;;5105071;28;20232;-84
2023/05/04 03:26:28;;;;;;;4.70;3.47;;;;;;;;;;5111461;28;20219;-84
2023/05/04 03:28:55;;;;;;;4.43;3.07;;;;;;;;;;5099135;28;20204;-85
2023/05/04 03:31:22;;;;;;;8.03;6.37;;;;;;;;;;5097207;28;20246;-84
2023/05/04 03:33:50;;;;;;;4.17;3.77;;;;;;;;;;5109900;28;20210;-85
2023/05/04 03:36:17;;;;;;;7.37;4.00;;;;;;;;;;5111838;28;20584;-86
2023/05/04 03:38:44;;;;;;;7.77;5.77;;;;;;;;;;5116794;28;20227;-86
2023/05/04 03:41:13;;;;;;;5.03;4.53;;;;;;;;;;5110505;28;20681;-85
2023/05/04 03:43:40;;;;;;;3.77;3.10;;;;;;;;;;5111957;28;20279;-86
2023/05/04 03:46:09;;;;;;;6.87;3.57;;;;;;;;;;5115190;28;20203;-84
2023/05/04 03:48:36;;;;;;;7.47;5.20;;;;;;;;;;5099660;28;20222;-86
2023/05/04 03:51:03;;;;;;;8.77;4.37;;;;;;;;;;5115739;28;20207;-86
2023/05/04 03:53:30;;;;;;;4.90;3.73;;;;;;;;;;5115559;28;20203;-87
2023/05/04 03:55:57;;;;;;;6.13;4.63;;;;;;;;;;5101721;28;20256;-86
2023/05/04 03:58:25;;;;;;;4.97;3.80;;;;;;;;;;5086748;28;20739;-86
2023/05/04 04:00:52;;;;;;;7.00;4.17;;;;;;;;;;5115088;28;20284;-87
2023/05/04 04:03:19;;;;;;;4.77;3.97;;;;;;;;;;5103013;28;20226;-80
2023/05/04 04:05:46;;;;;;;6.03;4.47;;;;;;;;;;5114711;28;20693;-84
2023/05/04 04:08:14;;;;;;;4.33;3.83;;;;;;;;;;5114910;28;20629;-85
2023/05/04 04:10:41;;;;;;;4.10;3.67;;;;;;;;;;5114473;27;20278;-85
2023/05/04 04:13:08;;;;;;;6.90;4.40;;;;;;;;;;5114531;28;20211;-84
2023/05/04 04:15:43;;;;;;;4.43;3.40;;;;;;;;;;5110586;28;20750;-83
2023/05/04 04:18:11;;;;;;;6.93;6.23;;;;;;;;;;5081128;28;20286;-84
2023/05/04 04:20:38;;;;;;;6.13;4.07;;;;;;;;;;5115199;28;20250;-85
2023/05/04 04:23:06;;;;;;;8.80;4.17;;;;;;;;;;5097911;28;20704;-86
2023/05/04 04:25:32;;;;;;;5.33;4.83;;;;;;;;;;5109438;28;20207;-84
2023/05/04 04:28:02;;;;;;;4.43;4.03;;;;;;;;;;5116721;28;20207;-90
2023/05/04 04:30:29;;;;;;;5.67;4.50;;;;;;;;;;5114718;28;20249;-85
2023/05/04 04:32:57;;;;;;;4.90;3.83;;;;;;;;;;5116960;28;20658;-87
2023/05/04 04:35:24;;;;;;;6.20;4.07;;;;;;;;;;5116067;28;20632;-87
2023/05/04 04:37:51;;;;;;;6.33;3.73;;;;;;;;;;5100506;28;20250;-87
2023/05/04 04:40:21;;;;;;;5.53;3.87;;;;;;;;;;5113841;28;20730;-88
2023/05/04 04:42:48;;;;;;;6.50;4.67;;;;;;;;;;5100236;28;20207;-88
2023/05/04 04:45:15;;;;;;;5.00;4.53;;;;;;;;;;5103775;28;20211;-88
2023/05/04 04:47:43;;;;;;;4.67;3.37;;;;;;;;;;5100106;28;20204;-87
2023/05/04 04:50:13;;;;;;;4.17;3.80;;;;;;;;;;5114175;27;20289;-87
2023/05/04 04:52:41;;;;;;;3.90;3.60;;;;;;;;;;5114864;28;20207;-87
2023/05/04 04:55:10;;;;;;;4.37;3.50;;;;;;;;;;5096293;28;20244;-87
2023/05/04 04:57:37;;;;;;;8.17;4.00;;;;;;;;;;5124649;27;20253;-87
2023/05/04 05:00:08;;;;;;;4.80;4.03;;;;;;;;;;5108688;28;20285;-88
2023/05/04 05:02:35;;;;;;;7.17;2.67;;;;;;;;;;5114679;28;20199;-87
2023/05/04 05:05:03;;;;;;;5.33;3.60;;;;;;;;;;5113761;28;20259;-87
2023/05/04 05:07:31;;;;;;;8.73;6.13;;;;;;;;;;5114587;28;20300;-87
2023/05/04 05:09:58;;;;;;;7.97;4.33;;;;;;;;;;5115090;28;20238;-87
2023/05/04 05:12:25;;;;;;;8.03;6.20;;;;;;;;;;5114550;28;20247;-87
2023/05/04 05:14:52;;;;;;;6.17;3.07;;;;;;;;;;5114574;28;20199;-87
2023/05/04 05:17:19;;;;;;;5.07;3.27;;;;;;;;;;5114808;28;20207;-87
2023/05/04 05:19:46;;;;;;;4.60;4.20;;;;;;;;;;5114494;28;20716;-88
2023/05/04 05:22:13;;;;;;;5.70;3.40;;;;;;;;;;5114543;28;20728;-87
2023/05/04 05:24:42;;;;;;;8.33;6.13;;;;;;;;;;5114208;28;20219;-87
2023/05/04 05:27:09;;;;;;;7.43;5.93;;;;;;;;;;5114653;28;20211;-87
2023/05/04 05:29:36;;;;;;;4.97;4.53;;;;;;;;;;5114366;28;20203;-87
2023/05/04 05:32:03;;;;;;;4.13;3.70;;;;;;;;;;5113811;28;20204;-87
2023/05/04 05:34:30;;;;;;;20.80;8.17;;;;;;;;;;5113945;28;20382;-87
2023/05/04 05:36:57;;;;;;;6.93;4.53;;;;;;;;;;5114091;28;20738;-86
2023/05/04 05:39:23;;;;;;;5.23;3.60;;;;;;;;;;5098672;28;20227;-87
2023/05/04 05:41:56;;;;;;;4.90;3.77;;;;;;;;;;5113676;28;20674;-88
2023/05/04 05:44:22;;;;;;;6.80;3.40;;;;;;;;;;5115407;28;20223;-87
2023/05/04 05:46:49;;;;;;;12.37;6.17;;;;;;;;;;5114172;28;20208;-87
2023/05/04 05:49:16;;;;;;;9.37;4.17;;;;;;;;;;5113708;28;20214;-88
2023/05/04 05:51:43;;;;;;;4.53;3.70;;;;;;;;;;5114051;28;20673;-87
2023/05/04 05:54:10;;;;;;;6.27;3.13;;;;;;;;;;5113846;28;20214;-88
2023/05/04 05:56:36;;;;;;;7.17;6.47;;;;;;;;;;5114090;28;20562;-87
2023/05/04 05:59:05;;;;;;;6.10;5.60;;;;;;;;;;5113974;28;20211;-87
2023/05/04 06:01:31;;;;;;;6.87;3.93;;;;;;;;;;5114056;28;20658;-87
2023/05/04 06:03:58;;;;;;;3.10;2.90;;;;;;;;;;5113789;28;20331;-87
2023/05/04 06:06:25;;;;;;;7.07;3.80;;;;;;;;;;5113943;28;20196;-88
2023/05/04 06:08:52;;;;;;;3.60;3.30;;;;;;;;;;5112955;28;20585;-88
2023/05/04 06:11:19;;;;;;;3.93;3.20;;;;;;;;;;5113930;28;20199;-88
2023/05/04 06:13:46;;;;;;;6.47;4.07;;;;;;;;;;5113316;28;20690;-87
2023/05/04 06:16:14;;;;;;;3.90;3.40;;;;;;;;;;5113651;28;20207;-87
2023/05/04 06:18:41;;;;;;;4.37;4.07;;;;;;;;;;5113343;28;20202;-88
2023/05/04 06:21:07;;;;;;;3.93;3.60;;;;;;;;;;5113381;28;20685;-88
2023/05/04 06:23:34;;;;;;;5.70;2.87;;;;;;;;;;5113125;28;20219;-87
2023/05/04 06:26:01;;;;;;;6.00;5.50;;;;;;;;;;5113209;28;20265;-88
2023/05/04 06:28:28;;;;;;;5.77;3.90;;;;;;;;;;5113045;28;20197;-88
2023/05/04 06:30:54;;;;;;;4.63;3.90;;;;;;;;;;5113169;28;20206;-88
2023/05/04 06:33:22;;;;;;;6.10;5.00;;;;;;;;;;5113304;28;20207;-87
2023/05/04 06:35:49;;;;;;;8.60;6.20;;;;;;;;;;5113370;28;20211;-89
2023/05/04 06:38:16;;;;;;;4.03;3.63;;;;;;;;;;5112994;28;20235;-88
2023/05/04 06:40:43;;;;;;;4.57;3.73;;;;;;;;;;5113276;28;20199;-88
2023/05/04 06:43:10;;;;;;;3.60;3.30;;;;;;;;;;5113446;28;20677;-88
2023/05/04 06:45:38;;;;;;;4.43;3.53;;;;;;;;;;5112729;28;20235;-88
2023/05/04 06:48:06;;;;;;;5.97;3.33;;;;;;;;;;5113286;28;20226;-88
2023/05/04 06:50:35;;;;;;;3.60;3.30;;;;;;;;;;5113081;28;20260;-88
2023/05/04 06:53:07;;;;;;;4.20;3.40;;;;;;;;;;5113165;28;20230;-88
2023/05/04 06:55:34;;;;;;;6.10;4.13;;;;;;;;;;5112794;28;20611;-89
2023/05/04 06:58:01;;;;;;;5.33;3.50;;;;;;;;;;5112723;28;20206;-88
2023/05/04 07:00:28;;;;;;;4.87;3.30;;;;;;;;;;5112879;28;20207;-88
2023/05/04 07:02:54;;;;;;;4.20;3.27;;;;;;;;;;5112866;28;20211;-89
2023/05/04 07:05:22;;;;;;;5.60;3.60;;;;;;;;;;5112664;28;20219;-88
2023/05/04 07:07:50;;;;;;;3.53;3.23;;;;;;;;;;5099597;28;20223;-88
2023/05/04 07:10:18;;;;;;;4.67;3.07;;;;;;;;;;5112466;28;20215;-87
2023/05/04 07:12:45;;;;;;;12.33;7.67;;;;;;;;;;5113156;28;20207;-88
2023/05/04 07:15:12;;;;;;;8.37;5.90;;;;;;;;;;5113083;28;20724;-88
2023/05/04 07:17:39;;;;;;;9.13;6.03;;;;;;;;;;5112575;28;20264;-88
2023/05/04 07:20:07;;;;;;;6.60;4.47;;;;;;;;;;5113268;28;20237;-88
2023/05/04 07:22:33;;;;;;;3.90;3.50;;;;;;;;;;5117050;28;20203;-89
2023/05/04 07:25:02;;;;;;;3.77;3.20;;;;;;;;;;5116687;28;20284;-88
2023/05/04 07:27:29;;;;;;;4.23;3.83;;;;;;;;;;5117004;28;20207;-88
2023/05/04 07:29:56;;;;;;;3.90;3.60;;;;;;;;;;5116729;28;20222;-88
2023/05/04 07:32:23;;;;;;;7.63;4.80;;;;;;;;;;5116788;28;20681;-88
2023/05/04 07:34:50;;;;;;;12.67;9.10;;;;;;;;;;5116929;28;20215;-88
2023/05/04 07:37:16;;;;;;;7.37;5.50;;;;;;;;;;5116575;28;20211;-89
2023/05/04 07:39:43;;;;;;;11.13;7.17;;;;;;;;;;5116674;28;20215;-88
2023/05/04 07:42:12;;;;;;;8.70;5.07;;;;;;;;;;5116877;28;20211;-89
2023/05/04 07:44:42;;;;;;;7.60;5.47;;;;;;;;;;5116420;28;20287;-88
2023/05/04 07:47:09;;;;;;;7.07;6.37;;;;;;;;;;5116769;28;20859;-89
2023/05/04 07:49:35;;;;;;;6.43;5.83;;;;;;;;;;5116285;28;20215;-88
2023/05/04 07:52:05;;;;;;;6.27;5.00;;;;;;;;;;5116612;28;20206;-88
2023/05/04 07:54:32;;;;;;;8.53;4.53;;;;;;;;;;5116236;28;20213;-88
2023/05/04 07:57:02;;;;;;;5.83;4.27;;;;;;;;;;5116575;28;20295;-88
2023/05/04 07:59:30;;;;;;;5.53;4.30;;;;;;;;;;5115772;28;20721;-88
2023/05/04 08:01:57;;;;;;;7.03;4.10;;;;;;;;;;5116187;28;20208;-88
2023/05/04 08:04:24;;;;;;;4.70;4.30;;;;;;;;;;5116047;28;20232;-87
2023/05/04 08:06:50;;;;;;;5.77;4.23;;;;;;;;;;5116035;28;20218;-88
2023/05/04 08:09:18;;;;;;;4.97;4.50;;;;;;;;;;5116127;28;20212;-89
2023/05/04 08:11:45;;;;;;;6.77;3.83;;;;;;;;;;5116348;28;20200;-88
2023/05/04 08:14:12;;;;;;;9.43;4.40;;;;;;;;;;5115913;28;20207;-89
2023/05/04 08:16:40;;;;;;;5.30;4.00;;;;;;;;;;5116070;28;20203;-88
2023/05/04 08:19:07;;;;;;;5.90;4.83;;;;;;;;;;5115957;28;20229;-89
2023/05/04 08:21:33;;;;;;;4.70;4.30;;;;;;;;;;5116446;28;20199;-88
2023/05/04 08:24:03;;;;;;;6.53;4.30;;;;;;;;;;5115943;28;20212;-89
2023/05/04 08:26:30;;;;;;;5.77;4.50;;;;;;;;;;5115892;28;20690;-89
2023/05/04 08:29:06;;;;;;;4.13;3.73;;;;;;;;;;5115781;28;20217;-89
2023/05/04 08:31:32;;;;;;;7.27;5.17;;;;;;;;;;5115871;28;20203;-89
2023/05/04 08:34:01;;;;;;;4.70;4.20;;;;;;;;;;5115770;28;20240;-89
2023/05/04 08:36:27;;;;;;;7.50;5.00;;;;;;;;;;5115188;28;20278;-88
2023/05/04 08:38:54;;;;;;;7.83;6.40;;;;;;;;;;5115151;28;20231;-88
2023/05/04 08:41:22;;;;;;;6.73;5.50;;;;;;;;;;5115542;28;20207;-88
2023/05/04 08:43:49;;;;;;;9.13;4.77;;;;;;;;;;5115544;28;20592;-88
2023/05/04 08:46:16;;;;;;;5.17;4.50;;;;;;;;;;5114914;28;20342;-88
2023/05/04 08:48:43;;;;;;;5.30;4.03;;;;;;;;;;5115306;28;20678;-88
2023/05/04 08:51:12;;;;;;;5.30;4.27;;;;;;;;;;5116947;28;20215;-88
2023/05/04 08:53:41;;;;;;;4.47;4.07;;;;;;;;;;5115442;28;20207;-88
2023/05/04 08:56:09;;;;;;;6.73;5.00;;;;;;;;;;5115381;28;20207;-88
2023/05/04 08:58:39;;;;;;;5.83;4.97;;;;;;;;;;5115381;28;20210;-88
2023/05/04 09:01:07;;;;;;;5.50;4.80;;;;;;;;;;5115445;28;20207;-88
2023/05/04 09:03:34;;;;;;;7.03;5.20;;;;;;;;;;5115121;28;20234;-89
2023/05/04 09:06:01;;;;;;;6.70;5.67;;;;;;;;;;5115187;28;20669;-88
2023/05/04 09:08:29;;;;;;;9.10;4.70;;;;;;;;;;5115066;28;20226;-88
2023/05/04 09:10:57;;;;;;;7.40;4.47;;;;;;;;;;5115480;28;20216;-88
2023/05/04 09:13:24;;;;;;;7.40;5.80;;;;;;;;;;5114722;28;20584;-88
2023/05/04 09:15:55;;;;;;;7.07;4.43;;;;;;;;;;5114924;28;20715;-89
2023/05/04 09:18:22;;;;;;;6.30;5.23;;;;;;;;;;5115008;28;20219;-89
2023/05/04 09:20:50;;;;;;;5.37;4.87;;;;;;;;;;5114774;28;20249;-88
2023/05/04 09:23:17;;;;;;;6.43;5.37;;;;;;;;;;5114677;28;20217;-88
2023/05/04 09:25:49;;;;;;;5.80;5.10;;;;;;;;;;5114288;28;20215;-89
2023/05/04 09:28:17;;;;;;;8.43;6.43;;;;;;;;;;5114583;28;20217;-89
2023/05/04 09:30:44;;;;;;;6.80;5.73;;;;;;;;;;5114506;28;20204;-89
2023/05/04 09:33:11;;;;;;;6.83;6.13;;;;;;;;;;5114462;28;20351;-89
2023/05/04 09:35:40;;;;;;;7.63;6.70;;;;;;;;;;5114998;28;20214;-88
2023/05/04 09:38:07;;;;;;;7.53;5.93;;;;;;;;;;5114224;28;20231;-88
2023/05/04 09:40:35;;;;;;;7.67;5.57;;;;;;;;;;5113981;28;20594;-89
2023/05/04 09:43:05;;;;;;;9.00;6.60;;;;;;;;;;5113555;28;20297;-88
2023/05/04 09:45:39;;;;;;;6.37;5.03;;;;;;;;;;5114312;28;20697;-89
2023/05/04 09:48:17;;;;;;;9.93;5.27;;;;;;;;;;5113937;28;20231;-88
2023/05/04 09:50:50;;;;;;;7.87;5.03;;;;;;;;;;5114054;28;20203;-88
2023/05/04 09:53:17;;;;;;;7.23;5.17;;;;;;;;;;5114316;28;20290;-89
2023/05/04 09:55:45;;;;;;;6.20;5.60;;;;;;;;;;5113763;28;20206;-88
2023/05/04 09:58:17;;;;;;;8.57;5.90;;;;;;;;;;5113964;28;20238;-88
2023/05/04 10:00:44;;;;;;;8.60;5.50;;;;;;;;;;5113759;28;20571;-88
2023/05/04 10:03:13;;;;;;;10.43;6.00;;;;;;;;;;5113685;28;20241;-89
2023/05/04 10:05:39;;;;;;;7.17;5.80;;;;;;;;;;5113186;28;20231;-87
2023/05/04 10:08:06;;;;;;;6.57;5.23;;;;;;;;;;5113914;28;20207;-89
2023/05/04 10:10:34;;;;;;;8.53;5.67;;;;;;;;;;5114454;28;20214;-89
2023/05/04 10:13:01;;;;;;;7.43;5.63;;;;;;;;;;5113313;28;20226;-88
2023/05/04 10:15:29;;;;;;;6.17;5.27;;;;;;;;;;5113691;28;20207;-89
2023/05/04 10:18:09;;;;;;;7.70;6.10;;;;;;;;;;5113664;28;20240;-89
2023/05/04 10:21:03;;;;;;;8.93;5.97;;;;;;;;;;5113513;28;20214;-88
2023/05/04 10:23:46;;;;;;;7.07;6.23;;;;;;;;;;5100050;27;20214;-88
2023/05/04 10:26:33;;;;;;;7.13;5.70;;;;;;;;;;5113302;28;20286;-88
2023/05/04 10:29:12;;;;;;;6.73;6.00;;;;;;;;;;5101775;28;20193;-89
2023/05/04 10:31:42;;;;;;;10.00;6.33;;;;;;;;;;5113328;28;20296;-89
2023/05/04 10:34:10;;;;;;;9.27;5.70;;;;;;;;;;5113422;28;20247;-89
2023/05/04 10:36:37;;;;;;;7.60;5.20;;;;;;;;;;5113479;28;20296;-89
2023/05/04 10:39:04;;;;;;;6.10;5.23;;;;;;;;;;5112832;28;20225;-89
2023/05/04 10:41:31;;;;;;;7.70;6.20;;;;;;;;;;5113163;28;20264;-89
2023/05/04 10:44:05;;;;;;;8.77;6.07;;;;;;;;;;5113592;28;20215;-89
2023/05/04 10:46:31;;;;;;;6.43;5.67;;;;;;;;;;5112506;28;20713;-89
2023/05/04 10:49:00;;;;;;;12.03;6.77;;;;;;;;;;5113046;28;20204;-89
2023/05/04 10:51:26;;;;;;;7.10;5.67;;;;;;;;;;5113098;28;20210;-89
2023/05/04 10:53:53;;;;;;;8.67;6.77;;;;;;;;;;5112944;28;20214;-89
2023/05/04 10:56:21;;;;;;;7.33;5.37;;;;;;;;;;5112009;28;20209;-89
2023/05/04 10:58:49;;;;;;;17.17;9.10;;;;;;;;;;5112859;28;20207;-89
2023/05/04 11:01:16;;;;;;;16.27;8.47;;;;;;;;;;5113108;28;20207;-90
2023/05/04 11:03:43;;;;;;;7.90;5.73;;;;;;;;;;5112982;28;20214;-89
2023/05/04 11:06:19;;;;;;;7.77;5.27;;;;;;;;;;5112936;28;20227;-89
2023/05/04 11:08:48;;;;;;;8.43;7.17;;;;;;;;;;5112837;28;20210;-89
2023/05/04 11:11:15;;;;;;;9.73;6.10;;;;;;;;;;5113053;28;20238;-89
2023/05/04 11:13:45;;;;;;;6.60;5.93;;;;;;;;;;5112907;28;20215;-89
2023/05/04 11:16:12;;;;;;;10.73;8.50;;;;;;;;;;5113060;28;20210;-89
2023/05/04 11:18:40;;;;;;;9.00;6.10;;;;;;;;;;5113277;28;20208;-89
2023/05/04 11:21:08;;;;;;;10.23;6.33;;;;;;;;;;5113089;28;20581;-89
2023/05/04 11:23:36;;;;;;;13.37;10.27;;;;;;;;;;5112667;28;20207;-89
2023/05/04 11:26:07;;;;;;;8.17;6.37;;;;;;;;;;5112813;28;20223;-89
2023/05/04 11:28:35;;;;;;;8.70;6.13;;;;;;;;;;5112766;28;20222;-89
2023/05/04 11:31:12;;;;;;;8.17;5.23;;;;;;;;;;5112876;28;20211;-89
2023/05/04 11:33:44;;;;;;;7.03;5.53;;;;;;;;;;5099003;28;20293;-89
2023/05/04 11:36:11;;;;;;;6.47;4.87;;;;;;;;;;5112900;28;20206;-89
2023/05/04 11:38:39;;;;;;;8.17;5.37;;;;;;;;;;5112674;28;20227;-89
2023/05/04 11:41:06;;;;;;;6.93;5.63;;;;;;;;;;5112659;28;20211;-89
2023/05/04 11:43:33;;;;;;;7.80;6.17;;;;;;;;;;5112646;28;20629;-89
2023/05/04 11:46:01;;;;;;;10.00;6.10;;;;;;;;;;5112210;28;20280;-89
2023/05/04 11:48:28;;;;;;;8.47;5.93;;;;;;;;;;5112539;28;20211;-90
2023/05/04 11:50:56;;;;;;;6.10;5.17;;;;;;;;;;5112770;28;20214;-89
2023/05/04 11:53:23;;;;;;;6.53;5.47;;;;;;;;;;5112751;28;20204;-89
2023/05/04 11:55:53;;;;;;;6.53;5.00;;;;;;;;;;5112378;28;20257;-89
2023/05/04 11:58:25;;;;;;;8.50;5.87;;;;;;;;;;5112779;28;20207;-89
2023/05/04 12:00:55;;;;;;;9.47;6.13;;;;;;;;;;5112552;28;20719;-89
2023/05/04 12:03:25;;;;;;;6.53;5.27;;;;;;;;;;5112483;28;20211;-90
2023/05/04 12:05:54;;;;;;;6.83;4.93;;;;;;;;;;5112514;28;20259;-90
2023/05/04 12:08:26;;;;;;;18.77;11.27;;;;;;;;;;5116325;28;20203;-89
2023/05/04 12:11:08;;;;;;;12.57;6.43;;;;;;;;;;5116134;28;20305;-89
2023/05/04 12:13:35;;;;;;;12.13;9.63;;;;;;;;;;5116208;28;20207;-89
2023/05/04 12:16:11;;;;;;;7.53;5.63;;;;;;;;;;5116289;28;20757;-90
2023/05/04 12:18:38;;;;;;;6.97;5.43;;;;;;;;;;5115801;28;20701;-90
2023/05/04 12:21:09;;;;;;;7.10;5.50;;;;;;;;;;5116130;28;20578;-90
2023/05/04 12:23:36;;;;;;;6.37;4.93;;;;;;;;;;5115957;28;20646;-89
2023/05/04 12:26:04;;;;;;;13.93;8.07;;;;;;;;;;5115962;28;20226;-90
2023/05/04 12:28:31;;;;;;;16.33;8.57;;;;;;;;;;5115834;28;20204;-89
2023/05/04 12:30:58;;;;;;;18.53;13.20;;;;;;;;;;5115581;28;20220;-90
2023/05/04 12:33:25;;;;;;;10.43;5.50;;;;;;;;;;5115964;28;20562;-90
2023/05/04 12:35:52;;;;;;;16.60;11.47;;;;;;;;;;5116178;28;20243;-89
2023/05/04 12:38:20;;;;;;;10.17;6.97;;;;;;;;;;5115633;28;20239;-90
2023/05/04 12:40:46;;;;;;;12.23;10.37;;;;;;;;;;5116008;28;20260;-90
2023/05/04 12:43:17;;;;;;;10.77;7.90;;;;;;;;;;5115916;28;20570;-90
2023/05/04 12:45:43;;;;;;;11.97;6.70;;;;;;;;;;5115816;28;20280;-89
2023/05/04 12:48:12;;;;;;;13.67;11.17;;;;;;;;;;5115103;28;20208;-90
2023/05/04 12:50:39;;;;;;;23.00;13.23;;;;;;;;;;5115802;28;20213;-90
2023/05/04 12:53:06;;;;;;;13.00;7.43;;;;;;;;;;5115652;28;20274;-90
2023/05/04 12:55:33;;;;;;;5.77;4.50;;;;;;;;;;5115409;28;20207;-90
2023/05/04 12:58:00;;;;;;;6.70;5.00;;;;;;;;;;5115213;28;21072;-90
2023/05/04 13:00:31;;;;;;;9.67;5.50;;;;;;;;;;5115528;28;20670;-90
2023/05/04 13:02:58;;;;;;;6.97;4.77;;;;;;;;;;5115537;28;20207;-90
2023/05/04 13:05:25;;;;;;;7.97;5.50;;;;;;;;;;5115196;28;20215;-90
2023/05/04 13:07:52;;;;;;;6.50;3.87;;;;;;;;;;5115165;28;20272;-89
2023/05/04 13:10:19;;;;;;;5.83;4.70;;;;;;;;;;5115281;28;20215;-90
2023/05/04 13:12:46;;;;;;;4.90;4.40;;;;;;;;;;5115203;28;20218;-90
2023/05/04 13:15:13;;;;;;;4.77;3.73;;;;;;;;;;5114914;28;20269;-90
2023/05/04 13:17:42;;;;;;;8.90;4.67;;;;;;;;;;5114603;27;20634;-90
2023/05/04 13:20:09;;;;;;;5.73;5.23;;;;;;;;;;5114981;28;20291;-91
2023/05/04 13:22:36;;;;;;;5.20;3.80;;;;;;;;;;5115213;28;20204;-90
2023/05/04 13:25:04;;;;;;;6.33;4.27;;;;;;;;;;5114659;28;20264;-91
2023/05/04 13:27:31;;;;;;;5.33;3.90;;;;;;;;;;5115069;28;20745;-90
2023/05/04 13:30:00;;;;;;;3.50;3.20;;;;;;;;;;5114983;28;20207;-90
2023/05/04 13:32:26;;;;;;;5.73;4.90;;;;;;;;;;5115375;28;20626;-90
2023/05/04 13:34:54;;;;;;;5.57;4.50;;;;;;;;;;5114442;28;20237;-90
2023/05/04 13:37:22;;;;;;;7.63;6.83;;;;;;;;;;5114592;28;20203;-90
2023/05/04 13:39:49;;;;;;;12.07;7.30;;;;;;;;;;5114639;28;20239;-90
2023/05/04 13:42:16;;;;;;;12.47;6.80;;;;;;;;;;5114359;28;20211;-89
2023/05/04 13:44:44;;;;;;;6.10;4.67;;;;;;;;;;5114483;28;20272;-91
2023/05/04 13:47:11;;;;;;;4.93;4.20;;;;;;;;;;5114458;28;20259;-90
2023/05/04 13:49:38;;;;;;;12.30;8.87;;;;;;;;;;5114449;28;20263;-90
2023/05/04 13:52:06;;;;;;;6.33;4.63;;;;;;;;;;5114295;28;20218;-91
2023/05/04 13:54:33;;;;;;;12.73;9.50;;;;;;;;;;5113790;28;20245;-91
2023/05/04 13:57:00;;;;;;;8.13;5.70;;;;;;;;;;5114656;28;20261;-90
2023/05/04 13:59:27;;;;;;;14.80;12.63;;;;;;;;;;5114493;28;20243;-89
2023/05/04 14:01:54;;;;;;;7.10;5.40;;;;;;;;;;5114025;28;20803;-90
2023/05/04 14:04:21;;;;;;;14.30;10.73;;;;;;;;;;5114581;28;20211;-90
2023/05/04 14:06:48;;;;;;;11.07;8.33;;;;;;;;;;5114256;28;20318;-91
2023/05/04 14:09:16;;;;;;;9.63;5.73;;;;;;;;;;5113923;28;20204;-90
2023/05/04 14:11:43;;;;;;;8.53;6.33;;;;;;;;;;5114003;28;20209;-90
2023/05/04 14:14:10;;;;;;;7.43;4.67;;;;;;;;;;5113966;28;20211;-90
2023/05/04 14:16:37;;;;;;;8.13;5.43;;;;;;;;;;5113882;28;20696;-90
2023/05/04 14:19:03;;;;;;;10.43;6.33;;;;;;;;;;5113548;28;20578;-90
2023/05/04 14:21:30;;;;;;;30.00;15.07;;;;;;;;;;5113739;28;20207;-90
2023/05/04 14:23:57;;;;;;;6.20;5.53;;;;;;;;;;5113892;28;20210;-90
2023/05/04 14:26:25;;;;;;;6.60;4.73;;;;;;;;;;5113594;28;20230;-90
2023/05/04 14:28:52;;;;;;;4.83;4.33;;;;;;;;;;5113687;28;20213;-91
2023/05/04 14:31:22;;;;;;;5.23;4.73;;;;;;;;;;5113451;28;20274;-90
2023/05/04 14:33:48;;;;;;;5.30;4.63;;;;;;;;;;5113944;28;20263;-90
2023/05/04 14:36:15;;;;;;;5.43;4.70;;;;;;;;;;5113351;28;20200;-91
2023/05/04 14:38:44;;;;;;;5.63;4.73;;;;;;;;;;5113383;28;20300;-90
2023/05/04 14:41:12;;;;;;;5.93;4.13;;;;;;;;;;5108377;28;20240;-90
2023/05/04 14:43:40;;;;;;;6.47;4.97;;;;;;;;;;5109979;28;20293;-83
2023/05/04 14:46:09;;;;;;;8.00;4.23;;;;;;;;;;5109103;28;20225;-84